Time;durP1;ratioP1;P1;durP2;ratioP2;P2;SDS_P1;SDS_P2;PMS_P1;PMS_P2;Temp;Humidity;BMP_temperature;BMP_pressure;BME280_temperature;BME280_humidity;BME280_pressure;Samples;Min_cycle;Max_cycle;Signal;HPM_P1;HPM_P2
2023/09/12 00:00:44;;;;;;;;;;;;;;;21.24;46.36;101749.31;110354;1259;22416;-47
2023/09/12 00:03:11;;;;;;;;;;;;;;;21.22;46.56;101749.23;110109;1262;22471;-47
2023/09/12 00:05:40;;;;;;;;;;;;;;;21.21;46.72;101748.77;110410;1259;22420;-50
2023/09/12 00:08:07;;;;;;;;;;;;;;;21.21;46.77;101751.04;110387;1259;22425;-49
2023/09/12 00:10:34;;;;;;;;;;;;;;;21.22;46.66;101751.37;110374;1259;22445;-48
2023/09/12 00:13:02;;;;;;;;;;;;;;;21.22;46.65;101750.45;110335;1257;22448;-49
2023/09/12 00:15:30;;;;;;;;;;;;;;;21.23;46.61;101745.84;110356;1259;22428;-48
2023/09/12 00:17:57;;;;;;;;;;;;;;;21.22;46.57;101746.58;110105;1263;22414;-48
2023/09/12 00:20:25;;;;;;;;;;;;;;;21.22;46.65;101749.42;110483;1259;22421;-48
2023/09/12 00:22:54;;;;;;;;;;;;;;;21.21;46.67;101751.24;110340;1276;23168;-48
2023/09/12 00:25:21;;;;;;;;;;;;;;;21.19;46.63;101755.59;110478;1259;22450;-49
2023/09/12 00:27:49;;;;;;;;;;;;;;;21.17;46.50;101756.55;110422;1260;22455;-48
2023/09/12 00:30:16;;;;;;;;;;;;;;;21.15;46.51;101753.64;110077;1264;23139;-48
2023/09/12 00:32:45;;;;;;;;;;;;;;;21.14;46.56;101754.59;110429;1259;22872;-47
2023/09/12 00:35:13;;;;;;;;;;;;;;;21.12;46.58;101754.50;110124;1263;22457;-49
2023/09/12 00:37:40;;;;;;;;;;;;;;;21.12;46.53;101753.11;110272;1262;22412;-49
2023/09/12 00:40:08;;;;;;;;;;;;;;;21.13;46.57;101751.65;110413;1260;22421;-48
2023/09/12 00:42:35;;;;;;;;;;;;;;;21.14;46.54;101752.98;110078;1262;22429;-48
2023/09/12 00:45:03;;;;;;;;;;;;;;;21.16;46.51;101749.91;110349;1260;22443;-50
2023/09/12 00:47:31;;;;;;;;;;;;;;;21.17;46.58;101750.70;110370;1259;22394;-47
2023/09/12 00:49:59;;;;;;;;;;;;;;;21.18;46.89;101752.44;110426;1256;22426;-48
2023/09/12 00:52:26;;;;;;;;;;;;;;;21.17;47.28;101750.01;110347;1266;22414;-47
2023/09/12 00:54:54;;;;;;;;;;;;;;;21.16;47.86;101750.27;110206;1262;22440;-47
2023/09/12 00:57:21;;;;;;;;;;;;;;;21.13;48.39;101752.36;110293;1260;22501;-47
2023/09/12 00:59:49;;;;;;;;;;;;;;;21.10;48.42;101755.30;110299;1259;22459;-47
2023/09/12 01:02:18;;;;;;;;;;;;;;;21.08;48.50;101753.81;110435;1259;22437;-49
2023/09/12 01:04:46;;;;;;;;;;;;;;;21.05;48.32;101754.81;110328;1270;23177;-49
2023/09/12 01:07:13;;;;;;;;;;;;;;;21.01;48.79;101754.64;110288;1262;22397;-49
2023/09/12 01:09:41;;;;;;;;;;;;;;;20.99;49.19;101759.50;110418;1276;22401;-49
2023/09/12 01:12:08;;;;;;;;;;;;;;;20.98;49.26;101758.48;110317;1275;22439;-47
2023/09/12 01:14:36;;;;;;;;;;;;;;;20.98;49.44;101760.79;110319;1276;22404;-48
2023/09/12 01:17:03;;;;;;;;;;;;;;;21.00;49.43;101760.36;110397;1256;22459;-48
2023/09/12 01:19:31;;;;;;;;;;;;;;;21.02;49.62;101758.51;110420;1259;22464;-48
2023/09/12 01:22:07;;;;;;;;;;;;;;;21.05;49.86;101758.19;110381;1260;22476;-47
2023/09/12 01:24:50;;;;;;;;;;;;;;;21.09;50.01;101761.52;110365;1259;22443;-49
2023/09/12 01:27:18;;;;;;;;;;;;;;;21.14;49.82;101764.85;110298;1261;22464;-50
2023/09/12 01:29:46;;;;;;;;;;;;;;;21.17;49.92;101763.97;109637;1259;1002185;-48
2023/09/12 01:32:14;;;;;;;;;;;;;;;21.22;50.06;101765.66;110372;1259;22420;-49
2023/09/12 01:34:41;;;;;;;;;;;;;;;21.25;50.16;101767.25;110241;1258;22464;-49
2023/09/12 01:37:09;;;;;;;;;;;;;;;21.29;50.04;101770.27;110272;1266;22405;-51
2023/09/12 01:39:36;;;;;;;;;;;;;;;21.31;50.07;101771.21;110395;1260;22429;-53
2023/09/12 01:42:04;;;;;;;;;;;;;;;21.34;50.02;101776.35;110400;1256;22414;-47
2023/09/12 01:44:31;;;;;;;;;;;;;;;21.37;49.75;101773.70;110064;1276;22454;-47
2023/09/12 01:47:01;;;;;;;;;;;;;;;21.41;49.29;101775.61;110331;1276;22438;-54
2023/09/12 01:49:28;;;;;;;;;;;;;;;21.42;48.78;101775.05;110211;1262;22434;-49
2023/09/12 01:51:56;;;;;;;;;;;;;;;21.41;48.47;101774.77;110458;1273;22407;-53
2023/09/12 01:54:24;;;;;;;;;;;;;;;21.37;48.22;101772.30;110261;1276;22434;-49
2023/09/12 01:56:51;;;;;;;;;;;;;;;21.34;48.15;101773.53;110339;1260;22474;-48
2023/09/12 01:59:19;;;;;;;;;;;;;;;21.30;48.12;101775.14;110314;1260;22438;-47
2023/09/12 02:01:46;;;;;;;;;;;;;;;21.26;48.17;101774.61;110215;1263;22461;-51
2023/09/12 02:04:13;;;;;;;;;;;;;;;21.23;48.36;101772.11;110439;1259;22416;-48
2023/09/12 02:06:41;;;;;;;;;;;;;;;21.21;48.32;101773.14;110444;1257;23065;-48
2023/09/12 02:09:09;;;;;;;;;;;;;;;21.17;48.28;101770.14;110106;1275;22402;-48
2023/09/12 02:11:36;;;;;;;;;;;;;;;21.15;48.25;101772.37;110318;1260;22406;-48
2023/09/12 02:14:04;;;;;;;;;;;;;;;21.12;48.35;101764.60;110260;1261;22501;-48
2023/09/12 02:16:31;;;;;;;;;;;;;;;21.05;48.61;101763.14;110365;1260;22458;-47
2023/09/12 02:18:59;;;;;;;;;;;;;;;21.00;48.79;101765.66;110128;1279;22434;-48
2023/09/12 02:21:26;;;;;;;;;;;;;;;20.96;48.97;101761.92;110142;1263;22455;-48
2023/09/12 02:23:54;;;;;;;;;;;;;;;20.93;49.16;101764.23;110165;1262;22438;-50
2023/09/12 02:26:22;;;;;;;;;;;;;;;20.88;49.33;101768.17;110233;1263;22398;-49
2023/09/12 02:28:50;;;;;;;;;;;;;;;20.84;49.49;101769.41;109947;1266;22454;-49
2023/09/12 02:31:18;;;;;;;;;;;;;;;20.82;49.62;101771.45;110183;1271;22448;-50
2023/09/12 02:33:45;;;;;;;;;;;;;;;20.79;49.90;101771.77;110154;1279;22463;-49
2023/09/12 02:36:13;;;;;;;;;;;;;;;20.76;49.94;101774.95;110112;1276;22451;-50
2023/09/12 02:38:40;;;;;;;;;;;;;;;20.72;50.26;101779.52;110175;1256;22438;-47
2023/09/12 02:41:08;;;;;;;;;;;;;;;20.69;50.34;101781.07;110139;1260;22448;-47
2023/09/12 02:43:36;;;;;;;;;;;;;;;20.69;50.47;101781.98;110151;1280;22407;-50
2023/09/12 02:46:03;;;;;;;;;;;;;;;20.69;50.62;101780.23;110066;1280;22453;-47
2023/09/12 02:48:31;;;;;;;;;;;;;;;20.69;50.77;101777.90;110141;1261;22439;-48
2023/09/12 02:50:58;;;;;;;;;;;;;;;20.69;50.88;101776.15;110392;1267;22468;-48
2023/09/12 02:53:26;;;;;;;;;;;;;;;20.68;50.94;101779.89;110387;1257;23136;-52
2023/09/12 02:55:54;;;;;;;;;;;;;;;20.70;50.91;101782.48;110107;1264;23092;-51
2023/09/12 02:58:21;;;;;;;;;;;;;;;20.71;51.08;101785.41;110066;1275;23125;-47
2023/09/12 03:00:54;;;;;;;;;;;;;;;20.71;51.35;101786.08;110387;1260;22439;-47
2023/09/12 03:03:22;;;;;;;;;;;;;;;20.73;51.18;101789.90;110293;1272;22441;-49
2023/09/12 03:05:57;;;;;;;;;;;;;;;20.75;51.19;101792.06;110217;1264;22408;-50
2023/09/12 03:08:24;;;;;;;;;;;;;;;20.80;51.16;101796.44;110119;1276;22434;-48
2023/09/12 03:10:55;;;;;;;;;;;;;;;20.84;50.93;101798.02;110311;1261;23178;-50
2023/09/12 03:13:24;;;;;;;;;;;;;;;20.88;50.91;101797.12;110333;1260;22440;-51
2023/09/12 03:15:52;;;;;;;;;;;;;;;20.92;50.66;101799.39;110286;1260;22519;-49
2023/09/12 03:18:19;;;;;;;;;;;;;;;20.95;50.41;101802.23;110251;1270;22425;-51
2023/09/12 03:20:47;;;;;;;;;;;;;;;20.97;50.19;101800.16;110347;1257;22404;-49
2023/09/12 03:23:15;;;;;;;;;;;;;;;20.99;49.94;101800.08;110436;1258;22429;-47
2023/09/12 03:25:43;;;;;;;;;;;;;;;21.00;49.81;101799.15;110274;1257;22706;-48
2023/09/12 03:28:11;;;;;;;;;;;;;;;20.99;49.65;101794.41;110345;1276;22471;-53
2023/09/12 03:30:38;;;;;;;;;;;;;;;20.99;49.50;101796.58;110349;1260;22445;-47
2023/09/12 03:33:06;;;;;;;;;;;;;;;20.96;49.63;101800.76;110357;1260;22411;-50
2023/09/12 03:35:34;;;;;;;;;;;;;;;20.91;49.85;101802.92;110254;1276;22423;-47
2023/09/12 03:38:02;;;;;;;;;;;;;;;20.87;49.89;101809.51;110069;1276;22427;-50
2023/09/12 03:40:33;;;;;;;;;;;;;;;20.83;49.85;101810.20;110412;1268;22414;-50
2023/09/12 03:43:01;;;;;;;;;;;;;;;20.79;50.14;101813.57;110483;1260;22414;-47
2023/09/12 03:45:28;;;;;;;;;;;;;;;20.75;50.12;101815.91;110263;1260;22479;-49
2023/09/12 03:47:56;;;;;;;;;;;;;;;20.71;50.26;101817.65;110216;1276;22372;-53
2023/09/12 03:50:24;;;;;;;;;;;;;;;20.68;50.40;101819.92;110355;1270;22418;-51
2023/09/12 03:52:51;;;;;;;;;;;;;;;20.66;50.50;101818.95;110185;1260;22434;-49
2023/09/12 03:55:19;;;;;;;;;;;;;;;20.65;50.68;101818.50;110093;1259;22482;-49
2023/09/12 03:57:46;;;;;;;;;;;;;;;20.63;50.86;101821.38;109986;1278;22420;-47
2023/09/12 04:00:14;;;;;;;;;;;;;;;20.63;50.89;101823.52;110004;1276;23137;-48
2023/09/12 04:02:44;;;;;;;;;;;;;;;20.64;50.90;101823.63;110041;1263;22475;-47
2023/09/12 04:05:12;;;;;;;;;;;;;;;20.66;50.94;101826.19;110035;1263;23225;-48
2023/09/12 04:07:39;;;;;;;;;;;;;;;20.69;51.01;101828.54;110077;1260;22474;-47
2023/09/12 04:10:07;;;;;;;;;;;;;;;20.72;51.03;101831.20;110067;1261;22514;-49
2023/09/12 04:12:34;;;;;;;;;;;;;;;20.76;51.11;101833.14;110054;1263;22411;-47
2023/09/12 04:15:02;;;;;;;;;;;;;;;20.80;51.08;101834.00;110065;1260;22437;-48
2023/09/12 04:17:29;;;;;;;;;;;;;;;20.84;51.00;101836.80;110045;1273;22431;-47
2023/09/12 04:19:57;;;;;;;;;;;;;;;20.88;50.98;101839.44;110062;1263;22457;-51
2023/09/12 04:22:24;;;;;;;;;;;;;;;20.92;50.97;101833.21;110092;1264;23274;-49
2023/09/12 04:24:52;;;;;;;;;;;;;;;20.96;51.06;101835.16;110030;1261;22424;-48
2023/09/12 04:27:19;;;;;;;;;;;;;;;20.99;51.09;101835.52;110354;1258;23139;-48
2023/09/12 04:29:47;;;;;;;;;;;;;;;21.04;51.06;101834.99;110129;1260;22558;-50
2023/09/12 04:32:16;;;;;;;;;;;;;;;21.05;51.41;101832.80;110345;1260;22432;-47
2023/09/12 04:34:44;;;;;;;;;;;;;;;21.07;51.52;101835.04;110369;1257;22407;-48
2023/09/12 04:37:12;;;;;;;;;;;;;;;21.08;51.52;101833.54;110009;1279;22449;-50
2023/09/12 04:39:39;;;;;;;;;;;;;;;21.10;51.77;101832.27;110156;1257;23196;-48
2023/09/12 04:42:07;;;;;;;;;;;;;;;21.11;51.92;101830.80;110087;1274;22457;-49
2023/09/12 04:44:36;;;;;;;;;;;;;;;21.12;52.15;101829.34;110053;1280;22434;-52
2023/09/12 04:47:03;;;;;;;;;;;;;;;21.13;52.39;101826.08;110086;1277;22465;-48
2023/09/12 04:49:31;;;;;;;;;;;;;;;21.15;52.65;101829.56;110134;1263;22448;-49
2023/09/12 04:51:58;;;;;;;;;;;;;;;21.15;52.96;101833.91;110159;1261;22456;-51
2023/09/12 04:54:27;;;;;;;;;;;;;;;21.16;53.31;101835.83;110071;1262;23134;-49
2023/09/12 04:56:55;;;;;;;;;;;;;;;21.17;53.52;101842.30;110142;1260;22435;-48
2023/09/12 04:59:22;;;;;;;;;;;;;;;21.19;53.81;101845.91;110105;1260;22431;-51
2023/09/12 05:01:51;;;;;;;;;;;;;;;21.22;54.14;101840.45;110042;1264;23260;-48
2023/09/12 05:04:18;;;;;;;;;;;;;;;21.27;54.61;101838.84;110038;1275;22420;-49
2023/09/12 05:06:46;;;;;;;;;;;;;;;21.32;55.03;101841.76;110078;1263;22434;-49
2023/09/12 05:09:14;;;;;;;;;;;;;;;21.38;55.43;101843.03;110284;1276;22428;-53
2023/09/12 05:11:41;;;;;;;;;;;;;;;21.46;55.80;101847.21;110335;1270;22405;-47
2023/09/12 05:14:09;;;;;;;;;;;;;;;21.53;56.01;101847.73;109567;1276;1002204;-48
2023/09/12 05:16:36;;;;;;;;;;;;;;;21.61;56.22;101853.33;110402;1259;22435;-51
2023/09/12 05:19:04;;;;;;;;;;;;;;;21.69;56.39;101854.33;110364;1270;22435;-48
2023/09/12 05:21:32;;;;;;;;;;;;;;;21.76;56.53;101857.89;110228;1276;22412;-48
2023/09/12 05:24:00;;;;;;;;;;;;;;;21.82;56.70;101863.42;110375;1256;23055;-49
2023/09/12 05:26:27;;;;;;;;;;;;;;;21.88;56.80;101865.56;110350;1272;22400;-48
2023/09/12 05:28:55;;;;;;;;;;;;;;;21.94;56.86;101864.40;110103;1258;22518;-48
2023/09/12 05:31:23;;;;;;;;;;;;;;;21.99;56.93;101864.80;110306;1276;22419;-52
2023/09/12 05:33:50;;;;;;;;;;;;;;;22.06;56.99;101863.74;110274;1256;22431;-49
2023/09/12 05:36:18;;;;;;;;;;;;;;;22.13;57.05;101869.56;110386;1254;23055;-49
2023/09/12 05:38:45;;;;;;;;;;;;;;;22.20;57.03;101868.66;109561;1257;1002264;-48
2023/09/12 05:41:13;;;;;;;;;;;;;;;22.26;57.09;101869.39;110341;1256;22432;-49
2023/09/12 05:43:41;;;;;;;;;;;;;;;22.33;57.11;101872.59;110400;1260;22412;-49
2023/09/12 05:46:08;;;;;;;;;;;;;;;22.40;57.21;101874.67;110171;1257;22436;-47
2023/09/12 05:48:36;;;;;;;;;;;;;;;22.47;57.21;101871.44;110342;1272;23290;-49
2023/09/12 05:51:03;;;;;;;;;;;;;;;22.55;57.19;101866.44;110320;1259;22447;-53
2023/09/12 05:53:31;;;;;;;;;;;;;;;22.63;57.24;101870.82;110400;1270;22427;-51
2023/09/12 05:55:59;;;;;;;;;;;;;;;22.70;57.10;101870.09;110426;1259;22457;-50
2023/09/12 05:58:26;;;;;;;;;;;;;;;22.76;56.92;101870.45;110389;1259;22796;-50
2023/09/12 06:00:54;;;;;;;;;;;;;;;22.84;56.89;101870.35;110366;1261;23202;-47
2023/09/12 06:03:21;;;;;;;;;;;;;;;22.94;56.83;101873.32;110335;1272;22372;-49
2023/09/12 06:05:49;;;;;;;;;;;;;;;23.05;56.61;101872.20;110369;1254;22448;-54
2023/09/12 06:08:17;;;;;;;;;;;;;;;23.18;56.34;101874.65;110429;1256;22419;-49
2023/09/12 06:10:45;;;;;;;;;;;;;;;23.29;55.76;101878.40;110395;1254;22419;-48
2023/09/12 06:13:12;;;;;;;;;;;;;;;23.40;55.13;101880.64;110430;1258;22418;-49
2023/09/12 06:15:41;;;;;;;;;;;;;;;23.49;54.58;101877.85;110433;1257;22502;-49
2023/09/12 06:18:09;;;;;;;;;;;;;;;23.56;53.99;101881.86;110333;1276;22397;-52
2023/09/12 06:20:37;;;;;;;;;;;;;;;23.62;53.45;101885.42;110373;1256;22445;-50
2023/09/12 06:23:05;;;;;;;;;;;;;;;23.69;53.08;101886.90;110374;1257;22416;-49
2023/09/12 06:25:32;;;;;;;;;;;;;;;23.77;52.47;101887.71;110418;1259;22426;-48
2023/09/12 06:28:00;;;;;;;;;;;;;;;23.84;52.25;101889.93;110359;1259;23173;-48
2023/09/12 06:30:27;;;;;;;;;;;;;;;23.91;52.49;101895.50;110468;1254;22403;-48
2023/09/12 06:32:55;;;;;;;;;;;;;;;23.97;52.32;101895.31;110380;1256;22399;-48
2023/09/12 06:35:22;;;;;;;;;;;;;;;24.00;51.90;101896.75;110368;1256;22427;-48
2023/09/12 06:37:50;;;;;;;;;;;;;;;24.00;51.87;101895.34;110389;1256;22462;-48
2023/09/12 06:40:17;;;;;;;;;;;;;;;23.99;51.97;101900.16;109656;1269;1002481;-51
2023/09/12 06:42:45;;;;;;;;;;;;;;;24.00;51.58;101896.55;110315;1269;22461;-48
2023/09/12 06:45:12;;;;;;;;;;;;;;;24.01;51.02;101900.41;110369;1259;23305;-50
2023/09/12 06:47:40;;;;;;;;;;;;;;;24.02;50.70;101898.39;110375;1259;23096;-47
2023/09/12 06:50:07;;;;;;;;;;;;;;;24.04;49.97;101903.27;110398;1276;22409;-50
2023/09/12 06:52:45;;;;;;;;;;;;;;;24.06;49.84;101907.96;110353;1256;22464;-49
2023/09/12 06:55:13;;;;;;;;;;;;;;;24.09;49.62;101907.08;110449;1270;23162;-47
2023/09/12 06:57:40;;;;;;;;;;;;;;;24.12;49.03;101908.25;110387;1271;23369;-53
2023/09/12 07:00:08;;;;;;;;;;;;;;;24.19;48.52;101914.93;110369;1270;22378;-49
2023/09/12 07:02:36;;;;;;;;;;;;;;;24.28;47.80;101913.70;110290;1276;23156;-53
2023/09/12 07:05:04;;;;;;;;;;;;;;;24.39;47.17;101916.75;110402;1269;23072;-48
2023/09/12 07:07:32;;;;;;;;;;;;;;;24.54;46.43;101912.12;110186;1259;22430;-49
2023/09/12 07:10:00;;;;;;;;;;;;;;;24.74;45.72;101905.72;110394;1270;22424;-54
2023/09/12 07:12:47;;;;;;;;;;;;;;;25.04;45.00;101903.11;110157;1273;22438;-49
2023/09/12 07:15:15;;;;;;;;;;;;;;;25.32;42.40;101906.24;110366;1270;22398;-50
2023/09/12 07:17:43;;;;;;;;;;;;;;;25.62;40.23;101906.73;110291;1259;23143;-49
2023/09/12 07:20:11;;;;;;;;;;;;;;;25.90;38.22;101909.51;110477;1257;22443;-49
2023/09/12 07:22:42;;;;;;;;;;;;;;;26.13;36.68;101912.22;110333;1270;22423;-49
2023/09/12 07:25:11;;;;;;;;;;;;;;;26.33;36.41;101917.19;110398;1256;22440;-48
2023/09/12 07:27:39;;;;;;;;;;;;;;;26.50;35.66;101912.05;110409;1259;22414;-49
2023/09/12 07:30:07;;;;;;;;;;;;;;;26.62;34.93;101912.84;110423;1259;22433;-49
2023/09/12 07:32:34;;;;;;;;;;;;;;;26.67;33.94;101915.12;110397;1268;22418;-48
2023/09/12 07:35:02;;;;;;;;;;;;;;;26.69;33.80;101911.84;110389;1254;22448;-51
2023/09/12 07:37:30;;;;;;;;;;;;;;;26.69;34.96;101915.02;110363;1256;22424;-48
2023/09/12 07:39:57;;;;;;;;;;;;;;;26.69;36.36;101916.48;110350;1259;22413;-49
2023/09/12 07:42:25;;;;;;;;;;;;;;;26.69;38.39;101917.10;110368;1259;22420;-48
2023/09/12 07:44:52;;;;;;;;;;;;;;;26.71;39.22;101919.70;110375;1256;22454;-49
2023/09/12 07:47:20;;;;;;;;;;;;;;;26.71;39.53;101915.38;110414;1254;22516;-48
2023/09/12 07:49:52;;;;;;;;;;;;;;;26.72;39.71;101916.58;110354;1272;22454;-51
2023/09/12 07:52:20;;;;;;;;;;;;;;;26.73;39.91;101915.09;110377;1272;22426;-48
2023/09/12 07:54:49;;;;;;;;;;;;;;;26.74;39.97;101917.13;110425;1257;22401;-50
2023/09/12 07:57:16;;;;;;;;;;;;;;;26.76;39.74;101916.86;110335;1276;22403;-48
2023/09/12 07:59:44;;;;;;;;;;;;;;;26.76;39.47;101917.00;110125;1273;22494;-48
2023/09/12 08:02:12;;;;;;;;;;;;;;;26.76;38.87;101919.50;110337;1256;22428;-49
2023/09/12 08:04:40;;;;;;;;;;;;;;;26.74;38.02;101923.19;110390;1259;23251;-49
2023/09/12 08:07:07;;;;;;;;;;;;;;;26.73;37.30;101924.35;110368;1269;22441;-51
2023/09/12 08:09:54;;;;;;;;;;;;;;;26.73;37.53;101922.05;110376;1276;22427;-49
2023/09/12 08:12:22;;;;;;;;;;;;;;;26.68;37.97;101921.16;110124;1259;23536;-49
2023/09/12 08:14:49;;;;;;;;;;;;;;;26.68;37.49;101921.66;110343;1256;22433;-49
2023/09/12 08:17:17;;;;;;;;;;;;;;;26.70;37.17;101914.55;110337;1267;23068;-50
2023/09/12 08:19:44;;;;;;;;;;;;;;;26.72;37.44;101917.10;110121;1267;23196;-54
2023/09/12 08:22:12;;;;;;;;;;;;;;;26.76;37.23;101916.84;110423;1259;22465;-53
2023/09/12 08:24:40;;;;;;;;;;;;;;;26.79;36.61;101921.10;110265;1272;23267;-50
2023/09/12 08:27:07;;;;;;;;;;;;;;;26.80;36.38;101920.96;110450;1259;22406;-51
2023/09/12 08:29:35;;;;;;;;;;;;;;;26.83;36.46;101924.88;110378;1270;22456;-52
2023/09/12 08:32:02;;;;;;;;;;;;;;;26.86;36.19;101929.66;110163;1259;22440;-52
2023/09/12 08:34:30;;;;;;;;;;;;;;;26.91;36.33;101929.84;110383;1260;22422;-50
2023/09/12 08:36:58;;;;;;;;;;;;;;;26.95;36.53;101930.27;110424;1258;23183;-51
2023/09/12 08:39:25;;;;;;;;;;;;;;;26.99;36.09;101928.37;110380;1256;23243;-51
2023/09/12 08:41:53;;;;;;;;;;;;;;;27.02;35.77;101925.82;110269;1269;22413;-51
2023/09/12 08:44:21;;;;;;;;;;;;;;;27.05;36.11;101927.20;110377;1270;22412;-52
2023/09/12 08:46:49;;;;;;;;;;;;;;;27.06;35.96;101923.88;110435;1255;22442;-50
2023/09/12 08:49:17;;;;;;;;;;;;;;;27.08;36.16;101922.52;110376;1270;22414;-53
2023/09/12 08:51:44;;;;;;;;;;;;;;;27.09;35.79;101921.38;110359;1272;22460;-54
2023/09/12 08:54:12;;;;;;;;;;;;;;;27.11;36.37;101922.14;110347;1270;23254;-50
2023/09/12 08:56:41;;;;;;;;;;;;;;;27.12;36.80;101922.95;110180;1258;23090;-50
2023/09/12 08:59:08;;;;;;;;;;;;;;;27.14;36.52;101923.13;110203;1257;22433;-49
2023/09/12 09:01:36;;;;;;;;;;;;;;;27.15;36.33;101921.98;110129;1270;299682;-50
2023/09/12 09:04:03;;;;;;;;;;;;;;;27.17;36.03;101917.38;110408;1255;23188;-49
2023/09/12 09:06:39;;;;;;;;;;;;;;;27.19;36.48;101917.96;110305;1260;22465;-53
2023/09/12 09:09:07;;;;;;;;;;;;;;;27.21;36.49;101923.70;110397;1270;22459;-51
2023/09/12 09:11:35;;;;;;;;;;;;;;;27.23;36.58;101916.05;110318;1256;23235;-51
2023/09/12 09:14:03;;;;;;;;;;;;;;;27.25;36.71;101915.56;110330;1256;22410;-50
2023/09/12 09:16:30;;;;;;;;;;;;;;;27.28;36.65;101915.83;110402;1269;22435;-50
2023/09/12 09:19:11;;;;;;;;;;;;;;;27.34;36.49;101916.53;110148;1273;22438;-50
2023/09/12 09:21:40;;;;;;;;;;;;;;;27.39;36.66;101912.57;110396;1272;22442;-55
2023/09/12 09:24:08;;;;;;;;;;;;;;;27.46;36.78;101910.86;110416;1259;22392;-53
2023/09/12 09:26:42;;;;;;;;;;;;;;;27.52;36.83;101911.46;110116;1273;22425;-56
2023/09/12 09:29:10;;;;;;;;;;;;;;;27.59;36.81;101912.70;110416;1269;22489;-49
2023/09/12 09:31:41;;;;;;;;;;;;;;;27.65;37.00;101913.67;110407;1270;22439;-51
2023/09/12 09:34:13;;;;;;;;;;;;;;;27.71;36.99;101916.81;110220;1272;23097;-55
2023/09/12 09:36:44;;;;;;;;;;;;;;;27.78;36.95;101913.97;110378;1272;23349;-52
2023/09/12 09:39:12;;;;;;;;;;;;;;;27.84;36.49;101915.46;110371;1256;22466;-51
2023/09/12 09:41:39;;;;;;;;;;;;;;;27.89;36.40;101912.01;110381;1269;23811;-54
2023/09/12 09:44:07;;;;;;;;;;;;;;;27.94;36.84;101914.67;110401;1259;22447;-52
2023/09/12 09:46:35;;;;;;;;;;;;;;;28.00;36.92;101914.40;110409;1268;22459;-50
2023/09/12 09:49:03;;;;;;;;;;;;;;;28.06;36.49;101911.08;110301;1268;22438;-49
2023/09/12 09:51:31;;;;;;;;;;;;;;;28.03;36.45;101914.52;110391;1258;22442;-51
2023/09/12 09:54:00;;;;;;;;;;;;;;;28.04;36.42;101912.15;110426;1256;22387;-50
2023/09/12 09:56:28;;;;;;;;;;;;;;;28.07;36.48;101913.36;110331;1272;23177;-52
2023/09/12 09:58:56;;;;;;;;;;;;;;;28.10;36.43;101913.80;110422;1259;22444;-54
2023/09/12 10:01:27;;;;;;;;;;;;;;;28.14;36.21;101914.08;110351;1272;23128;-51
2023/09/12 10:03:58;;;;;;;;;;;;;;;28.19;36.25;101914.38;110117;1276;22455;-51
2023/09/12 10:06:26;;;;;;;;;;;;;;;28.24;36.37;101914.87;110437;1269;22429;-53
2023/09/12 10:08:54;;;;;;;;;;;;;;;28.29;36.21;101920.91;110408;1256;23256;-49
2023/09/12 10:11:22;;;;;;;;;;;;;;;28.33;35.93;101921.29;110124;1259;22467;-51
2023/09/12 10:13:52;;;;;;;;;;;;;;;28.42;35.97;101922.55;110355;1272;22394;-50
2023/09/12 10:16:24;;;;;;;;;;;;;;;28.51;35.87;101914.52;110463;1258;23302;-51
2023/09/12 10:19:01;;;;;;;;;;;;;;;28.54;35.94;101922.27;110438;1254;23273;-49
2023/09/12 10:21:32;;;;;;;;;;;;;;;28.58;35.81;101923.25;110368;1267;22395;-50
2023/09/12 10:24:00;;;;;;;;;;;;;;;28.60;35.90;101922.70;110454;1270;22473;-50
2023/09/12 10:26:28;;;;;;;;;;;;;;;28.64;35.64;101923.86;110191;1273;22440;-49
2023/09/12 10:28:55;;;;;;;;;;;;;;;28.66;35.73;101923.51;110439;1269;22412;-51
2023/09/12 10:31:24;;;;;;;;;;;;;;;28.67;35.78;101920.71;110314;1262;23217;-51
2023/09/12 10:33:53;;;;;;;;;;;;;;;28.69;35.90;101918.80;110278;1271;22431;-52
2023/09/12 10:36:21;;;;;;;;;;;;;;;28.71;35.89;101920.09;110402;1269;22414;-50
2023/09/12 10:38:49;;;;;;;;;;;;;;;28.73;35.50;101919.71;110379;1268;22450;-54
2023/09/12 10:41:16;;;;;;;;;;;;;;;28.76;35.53;101921.98;110158;1274;22464;-50
2023/09/12 10:43:47;;;;;;;;;;;;;;;28.78;35.44;101920.59;110414;1276;22444;-49
2023/09/12 10:46:15;;;;;;;;;;;;;;;28.81;35.61;101920.14;110417;1272;22463;-52
2023/09/12 10:48:42;;;;;;;;;;;;;;;28.84;35.54;101918.98;110425;1256;22497;-51
2023/09/12 10:51:10;;;;;;;;;;;;;;;28.86;35.67;101919.94;110188;1275;23093;-50
2023/09/12 10:53:38;;;;;;;;;;;;;;;28.86;35.88;101919.73;110414;1270;22385;-53
2023/09/12 10:56:12;;;;;;;;;;;;;;;28.78;36.34;101920.02;110384;1267;22492;-53
2023/09/12 10:59:27;;;;;;;;;;;;;;;28.76;36.31;101916.45;110400;1272;22414;-54
2023/09/12 11:01:51;;;;;;;;;;;;;;;28.78;36.46;101917.73;109182;1276;1002985;-49
2023/09/12 11:04:18;;;;;;;;;;;;;;;28.65;36.87;101912.48;109962;1277;22525;-53
2023/09/12 11:06:47;;;;;;;;;;;;;;;28.67;36.75;101915.08;109927;1282;23153;-53
2023/09/12 11:09:21;;;;;;;;;;;;;;;28.59;36.67;101912.98;109964;1277;22422;-50
2023/09/12 11:11:59;;;;;;;;;;;;;;;28.56;36.81;101907.52;109955;1277;23030;-53
2023/09/12 11:14:27;;;;;;;;;;;;;;;28.53;36.88;101908.41;109671;1275;22545;-52
2023/09/12 11:17:07;;;;;;;;;;;;;;;28.51;36.78;101907.84;109809;1263;22441;-56
2023/09/12 11:19:44;;;;;;;;;;;;;;;28.50;37.11;101905.42;109929;1283;22446;-50
2023/09/12 11:22:24;;;;;;;;;;;;;;;28.49;37.34;101908.03;109933;1262;22416;-51
2023/09/12 11:24:52;;;;;;;;;;;;;;;28.49;37.58;101904.80;109949;1276;22459;-51
2023/09/12 11:27:19;;;;;;;;;;;;;;;28.53;37.61;101902.16;109913;1277;22460;-54
2023/09/12 11:29:47;;;;;;;;;;;;;;;28.52;37.45;101899.73;109183;1275;1002341;-53
2023/09/12 11:32:30;;;;;;;;;;;;;;;28.51;37.28;101900.88;109902;1276;22494;-51
2023/09/12 11:34:58;;;;;;;;;;;;;;;28.55;37.45;101901.87;109883;1273;22438;-56
2023/09/12 11:37:26;;;;;;;;;;;;;;;28.62;37.53;101898.33;109945;1262;22493;-51
2023/09/12 11:39:54;;;;;;;;;;;;;;;28.65;37.24;101895.94;110162;1266;22434;-49
2023/09/12 11:42:25;;;;;;;;;;;;;;;28.63;37.67;101893.73;110451;1256;22439;-52
2023/09/12 11:44:53;;;;;;;;;;;;;;;28.56;37.78;101895.21;110490;1269;22451;-50
2023/09/12 11:47:20;;;;;;;;;;;;;;;28.53;38.05;101892.38;110423;1276;22457;-50
2023/09/12 11:49:48;;;;;;;;;;;;;;;28.52;38.09;101890.68;110412;1269;22438;-50
2023/09/12 11:52:19;;;;;;;;;;;;;;;28.52;38.07;101891.08;110449;1268;22399;-53
2023/09/12 11:54:48;;;;;;;;;;;;;;;28.51;37.69;101890.95;110419;1259;23192;-56
2023/09/12 11:57:16;;;;;;;;;;;;;;;28.51;37.30;101887.55;110427;1269;23242;-52
2023/09/12 11:59:51;;;;;;;;;;;;;;;28.51;37.36;101888.25;109585;1269;1003139;-53
2023/09/12 12:02:19;;;;;;;;;;;;;;;28.50;37.27;101886.69;110077;1275;22420;-47
2023/09/12 12:04:46;;;;;;;;;;;;;;;28.49;37.19;101887.54;110115;1273;22432;-51
2023/09/12 12:07:14;;;;;;;;;;;;;;;28.47;37.26;101878.19;110350;1270;23193;-50
2023/09/12 12:09:41;;;;;;;;;;;;;;;28.45;37.38;101880.88;110232;1261;23154;-51
2023/09/12 12:12:09;;;;;;;;;;;;;;;28.46;36.78;101882.41;110259;1260;22429;-53
2023/09/12 12:14:38;;;;;;;;;;;;;;;28.46;36.91;101879.39;110371;1256;22553;-53
2023/09/12 12:17:07;;;;;;;;;;;;;;;28.42;37.24;101880.08;110372;1273;23114;-49
2023/09/12 12:19:36;;;;;;;;;;;;;;;28.42;37.72;101878.12;110409;1272;22455;-52
2023/09/12 12:22:07;;;;;;;;;;;;;;;28.43;38.07;101874.95;110350;1276;22437;-49
2023/09/12 12:24:39;;;;;;;;;;;;;;;28.45;38.42;101875.86;110056;1276;22406;-51
2023/09/12 12:27:08;;;;;;;;;;;;;;;28.48;38.20;101878.51;110296;1269;22441;-51
2023/09/12 12:29:36;;;;;;;;;;;;;;;28.50;37.85;101875.13;110409;1269;23179;-54
2023/09/12 12:32:09;;;;;;;;;;;;;;;28.52;38.04;101875.10;110363;1276;22449;-50